Terminal Aerodrome Forecast
Issued by NWS

Home | Current Version | Previous Version | Text Only | Print | Product List | Glossary On
Versions: 1 2 3 4 5 6 7 8 9 10 11 12 13
000
FTAK31 PAJN 291137
TAFAWG
TAF
PAWG 291137Z 2912/3012 00000KT P6SM SCT030 BKN035 OVC050
     FM291800 28007KT P6SM VCSH SCT015 BKN025 OVC040
     FM300000 29005KT 6SM -SHRA BR SCT015 OVC025
     FM300600 21003KT P6SM VCSH FEW007 SCT015 OVC025
     FM300900 VRB02KT 6SM BR BKN007 BKN015 OVC025
      AMD LTD TO CLD VIS AND WIND 2912/2915=

USA.gov is the U.S. government's official web portal to all federal, state and local government web resources and services.